Time;durP1;ratioP1;P1;durP2;ratioP2;P2;SDS_P1;SDS_P2;PMS_P1;PMS_P2;Temp;Humidity;BMP_temperature;BMP_pressure;BME280_temperature;BME280_humidity;BME280_pressure;Samples;Min_cycle;Max_cycle;Signal;HPM_P1;HPM_P2
2023/06/05 00:00:44;;;;;;;;;;;;;;;;;;5088733;28;19920;-61
2023/06/05 00:03:10;;;;;;;;;;;;;;;;;;5088846;28;19924;-61
2023/06/05 00:05:36;;;;;;;;;;;;;;;;;;5088976;28;19931;-61
2023/06/05 00:08:02;;;;;;;;;;;;;;;;;;5088136;28;19977;-61
2023/06/05 00:10:28;;;;;;;;;;;;;;;;;;5070619;28;20018;-61
2023/06/05 00:12:54;;;;;;;;;;;;;;;;;;5088579;28;19924;-61
2023/06/05 00:15:20;;;;;;;;;;;;;;;;;;5087965;28;19924;-61
2023/06/05 00:17:47;;;;;;;;;;;;;;;;;;5088740;28;19924;-61
2023/06/05 00:20:12;;;;;;;;;;;;;;;;;;5088487;28;20308;-61
2023/06/05 00:22:38;;;;;;;;;;;;;;;;;;5087965;28;20007;-61
2023/06/05 00:25:04;;;;;;;;;;;;;;;;;;5068608;28;19987;-61
2023/06/05 00:27:30;;;;;;;;;;;;;;;;;;5068914;28;20248;-61
2023/06/05 00:29:56;;;;;;;;;;;;;;;;;;5081163;28;19920;-61
2023/06/05 00:32:22;;;;;;;;;;;;;;;;;;5088280;28;20376;-61
2023/06/05 00:34:49;;;;;;;;;;;;;;;;;;5088627;28;19921;-61
2023/06/05 00:37:15;;;;;;;;;;;;;;;;;;5088253;28;20352;-61
2023/06/05 00:39:41;;;;;;;;;;;;;;;;;;5088783;28;19920;-61
2023/06/05 00:42:08;;;;;;;;;;;;;;;;;;5088727;28;19969;-61
2023/06/05 00:44:34;;;;;;;;;;;;;;;;;;5087968;28;19932;-61
2023/06/05 00:47:00;;;;;;;;;;;;;;;;;;5092625;28;19931;-61
2023/06/05 00:49:26;;;;;;;;;;;;;;;;;;5092116;28;19923;-61
2023/06/05 00:51:52;;;;;;;;;;;;;;;;;;5091524;28;20393;-61
2023/06/05 00:54:20;;;;;;;;;;;;;;;;;;5092281;28;19928;-61
2023/06/05 00:56:46;;;;;;;;;;;;;;;;;;5092041;28;19925;-61
2023/06/05 00:59:13;;;;;;;;;;;;;;;;;;5091536;28;19944;-61
2023/06/05 01:01:40;;;;;;;;;;;;;;;;;;5091790;28;20016;-61
2023/06/05 01:04:06;;;;;;;;;;;;;;;;;;5091503;28;19927;-61
2023/06/05 01:06:33;;;;;;;;;;;;;;;;;;5091395;28;19924;-61
2023/06/05 01:09:00;;;;;;;;;;;;;;;;;;5091931;28;20415;-61
2023/06/05 01:11:26;;;;;;;;;;;;;;;;;;5091862;28;19931;-61
2023/06/05 01:13:52;;;;;;;;;;;;;;;;;;5072434;28;19987;-61
2023/06/05 01:16:18;;;;;;;;;;;;;;;;;;5091566;28;19993;-61
2023/06/05 01:18:45;;;;;;;;;;;;;;;;;;5091628;28;20588;-61
2023/06/05 01:21:13;;;;;;;;;;;;;;;;;;5091055;28;19920;-61
2023/06/05 01:23:43;;;;;;;;;;;;;;;;;;5091398;28;20390;-61
2023/06/05 01:26:09;;;;;;;;;;;;;;;;;;5080589;28;19928;-61
2023/06/05 01:28:36;;;;;;;;;;;;;;;;;;5072572;28;19931;-61
2023/06/05 01:31:03;;;;;;;;;;;;;;;;;;5091428;28;19920;-61
2023/06/05 01:33:29;;;;;;;;;;;;;;;;;;5091374;28;19920;-61
2023/06/05 01:35:55;;;;;;;;;;;;;;;;;;5090879;28;20370;-61
2023/06/05 01:38:21;;;;;;;;;;;;;;;;;;5091222;28;19924;-61
2023/06/05 01:40:47;;;;;;;;;;;;;;;;;;5091192;28;19920;-61
2023/06/05 01:43:13;;;;;;;;;;;;;;;;;;5072656;28;19924;-61
2023/06/05 01:45:40;;;;;;;;;;;;;;;;;;5072348;28;19920;-61
2023/06/05 01:48:08;;;;;;;;;;;;;;;;;;5091095;28;19924;-61
2023/06/05 01:50:35;;;;;;;;;;;;;;;;;;5090952;28;19928;-61
2023/06/05 01:53:02;;;;;;;;;;;;;;;;;;5090492;28;19981;-61
2023/06/05 01:55:28;;;;;;;;;;;;;;;;;;5090678;28;19933;-61
2023/06/05 01:57:54;;;;;;;;;;;;;;;;;;5090548;28;19932;-61
2023/06/05 02:00:20;;;;;;;;;;;;;;;;;;5090474;28;20297;-61
2023/06/05 02:02:46;;;;;;;;;;;;;;;;;;5090838;28;19924;-61
2023/06/05 02:05:12;;;;;;;;;;;;;;;;;;5090423;28;20352;-61
2023/06/05 02:07:39;;;;;;;;;;;;;;;;;;5089987;28;20208;-61
2023/06/05 02:10:05;;;;;;;;;;;;;;;;;;5090747;28;19920;-61
2023/06/05 02:12:32;;;;;;;;;;;;;;;;;;5090409;28;20436;-61
2023/06/05 02:14:58;;;;;;;;;;;;;;;;;;5090195;28;19924;-61
2023/06/05 02:17:24;;;;;;;;;;;;;;;;;;5090140;28;19928;-61
2023/06/05 02:19:50;;;;;;;;;;;;;;;;;;5090388;28;20402;-61
2023/06/05 02:22:16;;;;;;;;;;;;;;;;;;5089875;28;19974;-61
2023/06/05 02:24:42;;;;;;;;;;;;;;;;;;5090230;28;20061;-61
2023/06/05 02:27:10;;;;;;;;;;;;;;;;;;5071303;28;19924;-61
2023/06/05 02:29:36;;;;;;;;;;;;;;;;;;5079760;28;19924;-61
2023/06/05 02:32:02;;;;;;;;;;;;;;;;;;5090159;28;19920;-61
2023/06/05 02:34:28;;;;;;;;;;;;;;;;;;5090112;28;19931;-61
2023/06/05 02:36:55;;;;;;;;;;;;;;;;;;5089306;28;19928;-61
2023/06/05 02:39:21;;;;;;;;;;;;;;;;;;5090168;28;19926;-61
2023/06/05 02:41:47;;;;;;;;;;;;;;;;;;5089971;28;19923;-61
2023/06/05 02:44:13;;;;;;;;;;;;;;;;;;5089316;28;20286;-62
2023/06/05 02:46:39;;;;;;;;;;;;;;;;;;5089872;28;19928;-62
2023/06/05 02:49:05;;;;;;;;;;;;;;;;;;5089862;28;20162;-62
2023/06/05 02:51:31;;;;;;;;;;;;;;;;;;5089334;28;20178;-62
2023/06/05 02:53:57;;;;;;;;;;;;;;;;;;5089870;28;19923;-62
2023/06/05 02:56:26;;;;;;;;;;;;;;;;;;5089497;28;19975;-62
2023/06/05 02:58:53;;;;;;;;;;;;;;;;;;5089044;28;19970;-62
2023/06/05 03:01:21;;;;;;;;;;;;;;;;;;5089633;28;19924;-62
2023/06/05 03:03:48;;;;;;;;;;;;;;;;;;5089662;28;19924;-62
2023/06/05 03:06:17;;;;;;;;;;;;;;;;;;5089043;28;19939;-62
2023/06/05 03:08:43;;;;;;;;;;;;;;;;;;5088966;28;19971;-62
2023/06/05 03:11:09;;;;;;;;;;;;;;;;;;5089820;28;19967;-62
2023/06/05 03:13:35;;;;;;;;;;;;;;;;;;5089022;28;19924;-62
2023/06/05 03:16:01;;;;;;;;;;;;;;;;;;5089596;28;19946;-62
2023/06/05 03:18:27;;;;;;;;;;;;;;;;;;5089444;28;19927;-61
2023/06/05 03:20:56;;;;;;;;;;;;;;;;;;5089150;28;20428;-61
2023/06/05 03:23:22;;;;;;;;;;;;;;;;;;5089279;28;19920;-61
2023/06/05 03:25:48;;;;;;;;;;;;;;;;;;5081227;28;19936;-61
2023/06/05 03:28:13;;;;;;;;;;;;;;;;;;5068638;28;20023;-61
2023/06/05 03:30:41;;;;;;;;;;;;;;;;;;5087253;28;22344;-61
2023/06/05 03:33:07;;;;;;;;;;;;;;;;;;5089016;28;19924;-61
2023/06/05 03:35:34;;;;;;;;;;;;;;;;;;5088560;28;20278;-61
2023/06/05 03:38:00;;;;;;;;;;;;;;;;;;5088970;28;20347;-61
2023/06/05 03:40:26;;;;;;;;;;;;;;;;;;5089320;28;19920;-61
2023/06/05 03:42:52;;;;;;;;;;;;;;;;;;5088569;28;19931;-61
2023/06/05 03:45:18;;;;;;;;;;;;;;;;;;5089077;28;20007;-61
2023/06/05 03:47:48;;;;;;;;;;;;;;;;;;5088841;28;19927;-61
2023/06/05 03:50:14;;;;;;;;;;;;;;;;;;5088331;28;19928;-62
2023/06/05 03:52:40;;;;;;;;;;;;;;;;;;5088428;28;19934;-62
2023/06/05 03:55:07;;;;;;;;;;;;;;;;;;5089005;28;20019;-61
2023/06/05 03:57:33;;;;;;;;;;;;;;;;;;5088482;28;19924;-61
2023/06/05 03:59:59;;;;;;;;;;;;;;;;;;5070710;28;20260;-61
2023/06/05 04:02:25;;;;;;;;;;;;;;;;;;5088804;28;20259;-61
2023/06/05 04:04:51;;;;;;;;;;;;;;;;;;5088290;28;19946;-61
2023/06/05 04:07:17;;;;;;;;;;;;;;;;;;5088936;28;19928;-61
2023/06/05 04:09:43;;;;;;;;;;;;;;;;;;5088487;28;19920;-61
2023/06/05 04:12:14;;;;;;;;;;;;;;;;;;5088421;28;19920;-61
2023/06/05 04:14:40;;;;;;;;;;;;;;;;;;5089056;28;20274;-61
2023/06/05 04:17:06;;;;;;;;;;;;;;;;;;5088767;28;20397;-61
2023/06/05 04:19:32;;;;;;;;;;;;;;;;;;5089983;28;19920;-61
2023/06/05 04:21:59;;;;;;;;;;;;;;;;;;5092855;28;19949;-61
2023/06/05 04:24:25;;;;;;;;;;;;;;;;;;5092467;28;20007;-61
2023/06/05 04:26:51;;;;;;;;;;;;;;;;;;5075533;28;20421;-61
2023/06/05 04:29:18;;;;;;;;;;;;;;;;;;5079638;28;19999;-61
2023/06/05 04:31:44;;;;;;;;;;;;;;;;;;5092518;28;19928;-61
2023/06/05 04:34:10;;;;;;;;;;;;;;;;;;5091527;28;20130;-61
2023/06/05 04:36:36;;;;;;;;;;;;;;;;;;5092363;28;19928;-61
2023/06/05 04:39:03;;;;;;;;;;;;;;;;;;5092410;28;19920;-61
2023/06/05 04:41:29;;;;;;;;;;;;;;;;;;5073377;28;19935;-61
2023/06/05 04:43:57;;;;;;;;;;;;;;;;;;5092417;28;19920;-61
2023/06/05 04:46:23;;;;;;;;;;;;;;;;;;5091929;28;20014;-61
2023/06/05 04:48:50;;;;;;;;;;;;;;;;;;5092499;28;20388;-61
2023/06/05 04:51:16;;;;;;;;;;;;;;;;;;5094040;28;19994;-61
2023/06/05 04:53:42;;;;;;;;;;;;;;;;;;5094034;28;19924;-61
2023/06/05 04:56:09;;;;;;;;;;;;;;;;;;5093509;28;19928;-61
2023/06/05 04:58:35;;;;;;;;;;;;;;;;;;5093909;28;19993;-61
2023/06/05 05:01:06;;;;;;;;;;;;;;;;;;5093688;28;19924;-61
2023/06/05 05:03:32;;;;;;;;;;;;;;;;;;5092936;28;19920;-61
2023/06/05 05:05:57;;;;;;;;;;;;;;;;;;5093767;28;19927;-61
2023/06/05 05:08:23;;;;;;;;;;;;;;;;;;5093884;28;19971;-61
2023/06/05 05:10:49;;;;;;;;;;;;;;;;;;5091623;28;20037;-61
2023/06/05 05:13:15;;;;;;;;;;;;;;;;;;5093006;28;19989;-61
2023/06/05 05:15:41;;;;;;;;;;;;;;;;;;5074652;28;19924;-61
2023/06/05 05:18:07;;;;;;;;;;;;;;;;;;5093029;28;20022;-61
2023/06/05 05:20:34;;;;;;;;;;;;;;;;;;5093323;28;19920;-58
2023/06/05 05:23:00;;;;;;;;;;;;;;;;;;5093070;28;19926;-58
2023/06/05 05:25:26;;;;;;;;;;;;;;;;;;5092430;28;19924;-55
2023/06/05 05:27:52;;;;;;;;;;;;;;;;;;5092761;28;19924;-57
2023/06/05 05:30:18;;;;;;;;;;;;;;;;;;5092534;28;19924;-56
2023/06/05 05:32:44;;;;;;;;;;;;;;;;;;5092070;28;19924;-58
2023/06/05 05:35:10;;;;;;;;;;;;;;;;;;5092940;28;19924;-59
2023/06/05 05:37:36;;;;;;;;;;;;;;;;;;5093160;28;20378;-58
2023/06/05 05:40:03;;;;;;;;;;;;;;;;;;5092764;28;19920;-58
2023/06/05 05:42:29;;;;;;;;;;;;;;;;;;5092711;28;19927;-58
2023/06/05 05:44:55;;;;;;;;;;;;;;;;;;5092740;28;19924;-59
2023/06/05 05:47:21;;;;;;;;;;;;;;;;;;5092524;28;19969;-59
2023/06/05 05:49:47;;;;;;;;;;;;;;;;;;5092488;28;19920;-59
2023/06/05 05:52:13;;;;;;;;;;;;;;;;;;5092698;28;19920;-57
2023/06/05 05:54:39;;;;;;;;;;;;;;;;;;5074480;28;19924;-58
2023/06/05 05:57:06;;;;;;;;;;;;;;;;;;5092128;28;19928;-58
2023/06/05 05:59:32;;;;;;;;;;;;;;;;;;5092668;28;19927;-59
2023/06/05 06:01:59;;;;;;;;;;;;;;;;;;5092560;28;19924;-58
2023/06/05 06:04:26;;;;;;;;;;;;;;;;;;5091843;28;20480;-58
2023/06/05 06:06:52;;;;;;;;;;;;;;;;;;5074602;28;20282;-58
2023/06/05 06:09:18;;;;;;;;;;;;;;;;;;5092173;28;19966;-58
2023/06/05 06:11:44;;;;;;;;;;;;;;;;;;5090207;28;19989;-61
2023/06/05 06:14:10;;;;;;;;;;;;;;;;;;5092050;28;20367;-60
2023/06/05 06:16:36;;;;;;;;;;;;;;;;;;5091903;28;20006;-61
2023/06/05 06:19:03;;;;;;;;;;;;;;;;;;5091626;28;19928;-61
2023/06/05 06:21:29;;;;;;;;;;;;;;;;;;5091910;28;19931;-60
2023/06/05 06:23:55;;;;;;;;;;;;;;;;;;5091398;28;19920;-61
2023/06/05 06:26:21;;;;;;;;;;;;;;;;;;5091461;28;19985;-60
2023/06/05 06:28:47;;;;;;;;;;;;;;;;;;5091784;28;19927;-60
2023/06/05 06:31:14;;;;;;;;;;;;;;;;;;5091614;28;19924;-61
2023/06/05 06:33:40;;;;;;;;;;;;;;;;;;5090945;28;19923;-61
2023/06/05 06:36:06;;;;;;;;;;;;;;;;;;5091407;28;19947;-62
2023/06/05 06:38:32;;;;;;;;;;;;;;;;;;5091630;28;19924;-61
2023/06/05 06:40:58;;;;;;;;;;;;;;;;;;5090856;28;19988;-61
2023/06/05 06:43:24;;;;;;;;;;;;;;;;;;5090345;28;19935;-61
2023/06/05 06:45:50;;;;;;;;;;;;;;;;;;5082668;28;19925;-61
2023/06/05 06:48:16;;;;;;;;;;;;;;;;;;5059902;28;19920;-61
2023/06/05 06:50:42;;;;;;;;;;;;;;;;;;5079441;28;20332;-59
2023/06/05 06:53:08;;;;;;;;;;;;;;;;;;5071193;28;19928;-61
2023/06/05 06:55:34;;;;;;;;;;;;;;;;;;5077402;28;19928;-60
2023/06/05 06:58:00;;;;;;;;;;;;;;;;;;5083213;28;19928;-61
2023/06/05 07:00:26;;;;;;;;;;;;;;;;;;5068496;28;20015;-61
2023/06/05 07:02:52;;;;;;;;;;;;;;;;;;5078436;28;19921;-60
2023/06/05 07:05:19;;;;;;;;;;;;;;;;;;5090022;28;19924;-61
2023/06/05 07:07:45;;;;;;;;;;;;;;;;;;5090050;28;19931;-61
2023/06/05 07:10:11;;;;;;;;;;;;;;;;;;5085661;28;19924;-59
2023/06/05 07:12:37;;;;;;;;;;;;;;;;;;5084949;28;19969;-61
2023/06/05 07:15:03;;;;;;;;;;;;;;;;;;5090251;28;19985;-61
2023/06/05 07:17:30;;;;;;;;;;;;;;;;;;5077398;28;19924;-61
2023/06/05 07:19:56;;;;;;;;;;;;;;;;;;5081678;28;19920;-61
2023/06/05 07:22:22;;;;;;;;;;;;;;;;;;5079422;28;19920;-61
2023/06/05 07:24:48;;;;;;;;;;;;;;;;;;5085468;28;19931;-62
2023/06/05 07:27:15;;;;;;;;;;;;;;;;;;5084065;28;20011;-63
2023/06/05 07:29:41;;;;;;;;;;;;;;;;;;5086363;28;19935;-63
2023/06/05 07:32:07;;;;;;;;;;;;;;;;;;5078252;28;19924;-63
2023/06/05 07:34:35;;;;;;;;;;;;;;;;;;5089606;28;19969;-62
2023/06/05 07:37:01;;;;;;;;;;;;;;;;;;5089296;28;19952;-61
2023/06/05 07:39:28;;;;;;;;;;;;;;;;;;5086249;28;20097;-60
2023/06/05 07:41:54;;;;;;;;;;;;;;;;;;5083230;28;19921;-61
2023/06/05 07:44:21;;;;;;;;;;;;;;;;;;5065110;28;20346;-62
2023/06/05 07:46:47;;;;;;;;;;;;;;;;;;5081787;28;19928;-62
2023/06/05 07:49:13;;;;;;;;;;;;;;;;;;5084281;28;19920;-62
2023/06/05 07:51:39;;;;;;;;;;;;;;;;;;5083344;28;19931;-61
2023/06/05 07:54:05;;;;;;;;;;;;;;;;;;5076729;28;19977;-60
2023/06/05 07:56:32;;;;;;;;;;;;;;;;;;5090234;28;19932;-61
2023/06/05 07:58:58;;;;;;;;;;;;;;;;;;5088139;28;20358;-61
2023/06/05 08:01:24;;;;;;;;;;;;;;;;;;5086179;28;19931;-61
2023/06/05 08:03:50;;;;;;;;;;;;;;;;;;5092925;28;19920;-60
2023/06/05 08:06:16;;;;;;;;;;;;;;;;;;5084639;28;19935;-64
2023/06/05 08:08:42;;;;;;;;;;;;;;;;;;5086886;28;20267;-59
2023/06/05 08:11:08;;;;;;;;;;;;;;;;;;5073970;28;19931;-63
2023/06/05 08:13:34;;;;;;;;;;;;;;;;;;5074852;28;19928;-64
2023/06/05 08:16:00;;;;;;;;;;;;;;;;;;5084789;28;19924;-65
2023/06/05 08:18:26;;;;;;;;;;;;;;;;;;5077015;28;19927;-64
2023/06/05 08:20:52;;;;;;;;;;;;;;;;;;5065640;28;19920;-63
2023/06/05 08:23:18;;;;;;;;;;;;;;;;;;5080973;28;19979;-62
2023/06/05 08:25:45;;;;;;;;;;;;;;;;;;5077702;28;20019;-64
2023/06/05 08:28:11;;;;;;;;;;;;;;;;;;5082939;28;19924;-65
2023/06/05 08:30:37;;;;;;;;;;;;;;;;;;5069517;28;19947;-64
2023/06/05 08:33:03;;;;;;;;;;;;;;;;;;5086240;28;20049;-64
2023/06/05 08:35:29;;;;;;;;;;;;;;;;;;5084739;28;20487;-62
2023/06/05 08:37:55;;;;;;;;;;;;;;;;;;5066449;28;20097;-62
2023/06/05 08:40:21;;;;;;;;;;;;;;;;;;5088161;28;19924;-64
2023/06/05 08:42:46;;;;;;;;;;;;;;;;;;5085842;28;20435;-64
2023/06/05 08:45:12;;;;;;;;;;;;;;;;;;5082028;28;19951;-62
2023/06/05 08:47:40;;;;;;;;;;;;;;;;;;5085814;28;19924;-63
2023/06/05 08:50:06;;;;;;;;;;;;;;;;;;5078446;28;19924;-63
2023/06/05 08:52:32;;;;;;;;;;;;;;;;;;5064699;28;20027;-62
2023/06/05 08:54:58;;;;;;;;;;;;;;;;;;5077204;28;20019;-63
2023/06/05 08:57:24;;;;;;;;;;;;;;;;;;5081390;28;19932;-64
2023/06/05 08:59:50;;;;;;;;;;;;;;;;;;5087919;28;20375;-63
2023/06/05 09:02:16;;;;;;;;;;;;;;;;;;5083083;28;19924;-64
2023/06/05 09:04:42;;;;;;;;;;;;;;;;;;5091168;28;20704;-64
2023/06/05 09:07:08;;;;;;;;;;;;;;;;;;5082381;28;19946;-63
2023/06/05 09:09:34;;;;;;;;;;;;;;;;;;5081077;28;19928;-63
2023/06/05 09:12:00;;;;;;;;;;;;;;;;;;5081063;28;19927;-61
2023/06/05 09:14:26;;;;;;;;;;;;;;;;;;5081833;28;19920;-62
2023/06/05 09:16:52;;;;;;;;;;;;;;;;;;5087658;28;19931;-61
2023/06/05 09:19:24;;;;;;;;;;;;;;;;;;5064130;28;19924;-61
2023/06/05 09:21:52;;;;;;;;;;;;;;;;;;5091479;28;19920;-61
2023/06/05 09:24:18;;;;;;;;;;;;;;;;;;5064559;28;19928;-62
2023/06/05 09:26:44;;;;;;;;;;;;;;;;;;5083330;28;19920;-62
2023/06/05 09:29:10;;;;;;;;;;;;;;;;;;5089647;28;20010;-63
2023/06/05 09:31:36;;;;;;;;;;;;;;;;;;5087557;28;20585;-64
2023/06/05 09:34:02;;;;;;;;;;;;;;;;;;5077244;28;19947;-63
2023/06/05 09:36:34;;;;;;;;;;;;;;;;;;5091163;28;20566;-65
2023/06/05 09:39:00;;;;;;;;;;;;;;;;;;5083167;28;20402;-62
2023/06/05 09:41:29;;;;;;;;;;;;;;;;;;5080600;28;19990;-62
2023/06/05 09:43:55;;;;;;;;;;;;;;;;;;5083772;28;19923;-63
2023/06/05 09:46:21;;;;;;;;;;;;;;;;;;5084030;28;20374;-60
2023/06/05 09:48:47;;;;;;;;;;;;;;;;;;5067080;28;20010;-59
2023/06/05 09:51:13;;;;;;;;;;;;;;;;;;5083644;28;19920;-60
2023/06/05 09:53:39;;;;;;;;;;;;;;;;;;5067047;28;19928;-61
2023/06/05 09:56:05;;;;;;;;;;;;;;;;;;5039390;28;20336;-61
2023/06/05 09:58:31;;;;;;;;;;;;;;;;;;5053702;28;20658;-61
2023/06/05 10:01:00;;;;;;;;;;;;;;;;;;5053605;28;20286;-61
2023/06/05 10:03:25;;;;;;;;;;;;;;;;;;5057657;28;19935;-61
2023/06/05 10:05:51;;;;;;;;;;;;;;;;;;5084706;28;19920;-62
2023/06/05 10:08:17;;;;;;;;;;;;;;;;;;5039354;28;19920;-60
2023/06/05 10:10:43;;;;;;;;;;;;;;;;;;5077187;28;19992;-61
2023/06/05 10:13:10;;;;;;;;;;;;;;;;;;5061701;28;19931;-60
2023/06/05 10:15:38;;;;;;;;;;;;;;;;;;5071659;28;19969;-60
2023/06/05 10:18:05;;;;;;;;;;;;;;;;;;5082516;28;19932;-59
2023/06/05 10:20:31;;;;;;;;;;;;;;;;;;5086262;28;20267;-60
2023/06/05 10:22:57;;;;;;;;;;;;;;;;;;5080915;28;19935;-61
2023/06/05 10:25:23;;;;;;;;;;;;;;;;;;5079000;28;19974;-62
2023/06/05 10:27:49;;;;;;;;;;;;;;;;;;5078266;28;19924;-63
2023/06/05 10:30:15;;;;;;;;;;;;;;;;;;5079594;28;19929;-62
2023/06/05 10:32:41;;;;;;;;;;;;;;;;;;5074327;28;19923;-63
2023/06/05 10:35:07;;;;;;;;;;;;;;;;;;5089930;28;19927;-62
2023/06/05 10:37:32;;;;;;;;;;;;;;;;;;5071246;28;19924;-63
2023/06/05 10:39:58;;;;;;;;;;;;;;;;;;5090261;28;19962;-63
2023/06/05 10:42:24;;;;;;;;;;;;;;;;;;5090279;28;19928;-62
2023/06/05 10:44:50;;;;;;;;;;;;;;;;;;5087950;28;19955;-62
2023/06/05 10:47:16;;;;;;;;;;;;;;;;;;5072750;28;19928;-63
2023/06/05 10:49:42;;;;;;;;;;;;;;;;;;5082267;28;19931;-63
2023/06/05 10:52:08;;;;;;;;;;;;;;;;;;5084962;28;19920;-63
2023/06/05 10:54:34;;;;;;;;;;;;;;;;;;5090009;28;19946;-63
2023/06/05 10:57:04;;;;;;;;;;;;;;;;;;5090649;28;20355;-63
2023/06/05 10:59:30;;;;;;;;;;;;;;;;;;5089506;28;19924;-63
2023/06/05 11:01:56;;;;;;;;;;;;;;;;;;5088255;28;19924;-63
2023/06/05 11:04:24;;;;;;;;;;;;;;;;;;5090056;28;19924;-63
2023/06/05 11:06:50;;;;;;;;;;;;;;;;;;5090167;28;19977;-63
2023/06/05 11:09:17;;;;;;;;;;;;;;;;;;5090096;28;19924;-63
2023/06/05 11:11:43;;;;;;;;;;;;;;;;;;5090642;28;19924;-63
2023/06/05 11:14:08;;;;;;;;;;;;;;;;;;5089965;28;19946;-62
2023/06/05 11:16:38;;;;;;;;;;;;;;;;;;5090193;28;19932;-63
2023/06/05 11:19:04;;;;;;;;;;;;;;;;;;5090248;28;19920;-62
2023/06/05 11:21:29;;;;;;;;;;;;;;;;;;5090136;28;19931;-63
2023/06/05 11:23:55;;;;;;;;;;;;;;;;;;5090288;28;19926;-62
2023/06/05 11:26:21;;;;;;;;;;;;;;;;;;5090682;28;19963;-66
2023/06/05 11:28:47;;;;;;;;;;;;;;;;;;5070967;28;19927;-63
2023/06/05 11:31:13;;;;;;;;;;;;;;;;;;5063807;28;19943;-63
2023/06/05 11:33:40;;;;;;;;;;;;;;;;;;5085301;28;19986;-61
2023/06/05 11:36:07;;;;;;;;;;;;;;;;;;5085352;28;19920;-63
2023/06/05 11:38:33;;;;;;;;;;;;;;;;;;5087415;28;19970;-63
2023/06/05 11:40:59;;;;;;;;;;;;;;;;;;5082403;28;19935;-61
2023/06/05 11:43:25;;;;;;;;;;;;;;;;;;5082795;28;19928;-62
2023/06/05 11:45:51;;;;;;;;;;;;;;;;;;5077600;28;19921;-63
2023/06/05 11:48:17;;;;;;;;;;;;;;;;;;5082678;28;19924;-63
2023/06/05 11:50:43;;;;;;;;;;;;;;;;;;5058357;28;19924;-63
2023/06/05 11:53:09;;;;;;;;;;;;;;;;;;5078331;28;19993;-63
2023/06/05 11:58:16;;;;;;;;;;;;;;;;;;5089126;28;19928;-62
2023/06/05 12:00:42;;;;;;;;;;;;;;;;;;5089065;28;19920;-62
2023/06/05 12:03:08;;;;;;;;;;;;;;;;;;5081305;28;19946;-63
2023/06/05 12:05:35;;;;;;;;;;;;;;;;;;5085425;28;20644;-63
2023/06/05 12:08:01;;;;;;;;;;;;;;;;;;5085431;28;19960;-61
2023/06/05 12:10:27;;;;;;;;;;;;;;;;;;5076299;28;19920;-63
2023/06/05 12:12:53;;;;;;;;;;;;;;;;;;5082569;28;20362;-62
2023/06/05 12:15:19;;;;;;;;;;;;;;;;;;5077412;28;19946;-62
2023/06/05 12:17:45;;;;;;;;;;;;;;;;;;5087276;28;19978;-60
2023/06/05 12:20:11;;;;;;;;;;;;;;;;;;5086283;28;19924;-61
2023/06/05 12:22:37;;;;;;;;;;;;;;;;;;5089357;28;20006;-63
2023/06/05 12:25:03;;;;;;;;;;;;;;;;;;5086789;28;20006;-64
2023/06/05 12:27:29;;;;;;;;;;;;;;;;;;5075549;28;19937;-62
2023/06/05 12:29:55;;;;;;;;;;;;;;;;;;5084624;28;19928;-60
2023/06/05 12:32:21;;;;;;;;;;;;;;;;;;5086561;28;19924;-61
2023/06/05 12:34:50;;;;;;;;;;;;;;;;;;5066228;28;19931;-61
2023/06/05 12:37:16;;;;;;;;;;;;;;;;;;5081651;28;19928;-63
2023/06/05 12:39:42;;;;;;;;;;;;;;;;;;5088415;28;19928;-62
2023/06/05 12:42:08;;;;;;;;;;;;;;;;;;5090940;28;19924;-62
2023/06/05 12:44:34;;;;;;;;;;;;;;;;;;5086159;28;20007;-62
2023/06/05 12:47:00;;;;;;;;;;;;;;;;;;5093425;28;19931;-63
2023/06/05 12:49:26;;;;;;;;;;;;;;;;;;5079210;28;19924;-63
2023/06/05 12:51:52;;;;;;;;;;;;;;;;;;5087970;28;19931;-63
2023/06/05 12:54:19;;;;;;;;;;;;;;;;;;5078154;28;19983;-65
2023/06/05 12:56:45;;;;;;;;;;;;;;;;;;5082955;28;19975;-64
2023/06/05 12:59:11;;;;;;;;;;;;;;;;;;5066168;28;20022;-64
2023/06/05 13:01:39;;;;;;;;;;;;;;;;;;5091857;28;20453;-64
2023/06/05 13:04:05;;;;;;;;;;;;;;;;;;5091873;28;20015;-63
2023/06/05 13:06:33;;;;;;;;;;;;;;;;;;5080944;28;19928;-63
2023/06/05 13:08:59;;;;;;;;;;;;;;;;;;5085201;28;20110;-63
2023/06/05 13:11:25;;;;;;;;;;;;;;;;;;5091285;28;20024;-63
2023/06/05 13:13:51;;;;;;;;;;;;;;;;;;5090305;28;19924;-62
2023/06/05 13:16:17;;;;;;;;;;;;;;;;;;5082722;28;20455;-64
2023/06/05 13:18:43;;;;;;;;;;;;;;;;;;5091134;28;19920;-64
2023/06/05 13:21:09;;;;;;;;;;;;;;;;;;5090786;28;19920;-64
2023/06/05 13:23:35;;;;;;;;;;;;;;;;;;5089069;28;19928;-63
2023/06/05 13:26:02;;;;;;;;;;;;;;;;;;5079252;28;20496;-63
2023/06/05 13:28:28;;;;;;;;;;;;;;;;;;5088947;28;19931;-63
2023/06/05 13:30:54;;;;;;;;;;;;;;;;;;5079016;28;19920;-63
2023/06/05 13:33:20;;;;;;;;;;;;;;;;;;5063184;28;19928;-63
2023/06/05 13:35:46;;;;;;;;;;;;;;;;;;5083702;28;19931;-64
2023/06/05 13:38:12;;;;;;;;;;;;;;;;;;5091238;28;19932;-64
2023/06/05 13:40:38;;;;;;;;;;;;;;;;;;5092171;28;19920;-63
2023/06/05 13:43:04;;;;;;;;;;;;;;;;;;5089828;28;20030;-62
2023/06/05 13:45:30;;;;;;;;;;;;;;;;;;5070838;28;19920;-62
2023/06/05 13:47:56;;;;;;;;;;;;;;;;;;5070656;28;19924;-64
2023/06/05 13:50:22;;;;;;;;;;;;;;;;;;5084400;28;19966;-64
2023/06/05 13:52:48;;;;;;;;;;;;;;;;;;5091361;28;19924;-63
2023/06/05 13:55:14;;;;;;;;;;;;;;;;;;5074217;28;19928;-63
2023/06/05 13:57:40;;;;;;;;;;;;;;;;;;5091902;28;20007;-63
2023/06/05 14:00:06;;;;;;;;;;;;;;;;;;5092501;28;20061;-64
2023/06/05 14:02:32;;;;;;;;;;;;;;;;;;5092036;28;20398;-64
2023/06/05 14:04:58;;;;;;;;;;;;;;;;;;5091633;28;19927;-64
2023/06/05 14:07:24;;;;;;;;;;;;;;;;;;5092159;28;19942;-64
2023/06/05 14:09:50;;;;;;;;;;;;;;;;;;5092022;28;19924;-64
2023/06/05 14:12:17;;;;;;;;;;;;;;;;;;5091093;28;20017;-64
2023/06/05 14:14:43;;;;;;;;;;;;;;;;;;5092092;28;19946;-64
2023/06/05 14:17:09;;;;;;;;;;;;;;;;;;5091920;28;19924;-65
2023/06/05 14:19:35;;;;;;;;;;;;;;;;;;5091597;28;19930;-64
2023/06/05 14:22:01;;;;;;;;;;;;;;;;;;5091540;28;19924;-64
2023/06/05 14:24:27;;;;;;;;;;;;;;;;;;5091281;28;19980;-65
2023/06/05 14:26:54;;;;;;;;;;;;;;;;;;5091385;28;19928;-65
2023/06/05 14:29:20;;;;;;;;;;;;;;;;;;5091564;28;19969;-65
2023/06/05 14:31:46;;;;;;;;;;;;;;;;;;5091446;28;19920;-64
2023/06/05 14:34:11;;;;;;;;;;;;;;;;;;5090895;28;19920;-64
2023/06/05 14:36:37;;;;;;;;;;;;;;;;;;5091056;28;19928;-61
2023/06/05 14:39:04;;;;;;;;;;;;;;;;;;5091595;28;19924;-62
2023/06/05 14:41:30;;;;;;;;;;;;;;;;;;5090933;28;20025;-64
2023/06/05 14:43:56;;;;;;;;;;;;;;;;;;5091569;28;19927;-64
2023/06/05 14:46:22;;;;;;;;;;;;;;;;;;5091310;28;19975;-64
2023/06/05 14:48:48;;;;;;;;;;;;;;;;;;5090957;28;19989;-64
2023/06/05 14:51:14;;;;;;;;;;;;;;;;;;5073288;28;19920;-64
2023/06/05 14:53:40;;;;;;;;;;;;;;;;;;5091197;28;19924;-64
2023/06/05 14:56:06;;;;;;;;;;;;;;;;;;5090936;28;19924;-64
2023/06/05 14:58:32;;;;;;;;;;;;;;;;;;5091047;28;20044;-64
2023/06/05 15:00:58;;;;;;;;;;;;;;;;;;5091321;28;19928;-64
2023/06/05 15:03:24;;;;;;;;;;;;;;;;;;5090059;28;20014;-64
2023/06/05 15:05:52;;;;;;;;;;;;;;;;;;5091029;28;19924;-64
2023/06/05 15:08:18;;;;;;;;;;;;;;;;;;5091097;28;20013;-64
2023/06/05 15:10:44;;;;;;;;;;;;;;;;;;5090847;28;19947;-64
2023/06/05 15:13:10;;;;;;;;;;;;;;;;;;5091135;28;19931;-64
2023/06/05 15:15:37;;;;;;;;;;;;;;;;;;5091217;28;19966;-64
2023/06/05 15:18:03;;;;;;;;;;;;;;;;;;5090489;28;19928;-64
2023/06/05 15:20:29;;;;;;;;;;;;;;;;;;5091042;28;20255;-64
2023/06/05 15:22:55;;;;;;;;;;;;;;;;;;5090892;28;19970;-64
2023/06/05 15:25:23;;;;;;;;;;;;;;;;;;5086146;28;19928;-64
2023/06/05 15:27:49;;;;;;;;;;;;;;;;;;5070594;28;19924;-64
2023/06/05 15:30:15;;;;;;;;;;;;;;;;;;5067631;28;19924;-64
2023/06/05 15:32:43;;;;;;;;;;;;;;;;;;5090305;28;19982;-64
2023/06/05 15:35:09;;;;;;;;;;;;;;;;;;5090872;28;20768;-64
2023/06/05 15:37:35;;;;;;;;;;;;;;;;;;5090765;28;20005;-64
2023/06/05 15:40:01;;;;;;;;;;;;;;;;;;5090150;28;19920;-60
2023/06/05 15:42:26;;;;;;;;;;;;;;;;;;5090554;28;19927;-60
2023/06/05 15:44:53;;;;;;;;;;;;;;;;;;5090732;28;19920;-60
2023/06/05 15:47:19;;;;;;;;;;;;;;;;;;5090153;28;20535;-60
2023/06/05 15:49:46;;;;;;;;;;;;;;;;;;5090792;28;19920;-60
2023/06/05 15:52:12;;;;;;;;;;;;;;;;;;5090502;28;20460;-62
2023/06/05 15:54:38;;;;;;;;;;;;;;;;;;5090228;28;19931;-62
2023/06/05 15:57:04;;;;;;;;;;;;;;;;;;5090640;28;19986;-62
2023/06/05 15:59:30;;;;;;;;;;;;;;;;;;5072497;28;19982;-62
2023/06/05 16:01:55;;;;;;;;;;;;;;;;;;5090164;28;19939;-62
2023/06/05 16:04:21;;;;;;;;;;;;;;;;;;5090142;28;19924;-62
2023/06/05 16:06:47;;;;;;;;;;;;;;;;;;5090661;28;19924;-62
2023/06/05 16:09:13;;;;;;;;;;;;;;;;;;5090013;28;19924;-62
2023/06/05 16:11:39;;;;;;;;;;;;;;;;;;5090634;28;19924;-62
2023/06/05 16:14:06;;;;;;;;;;;;;;;;;;5090331;28;19924;-62
2023/06/05 16:16:32;;;;;;;;;;;;;;;;;;5093357;28;19998;-61
2023/06/05 16:18:59;;;;;;;;;;;;;;;;;;5094349;28;20637;-61
2023/06/05 16:21:25;;;;;;;;;;;;;;;;;;5094543;28;20370;-61
2023/06/05 16:23:51;;;;;;;;;;;;;;;;;;5094286;28;19927;-61
2023/06/05 16:26:17;;;;;;;;;;;;;;;;;;5081984;28;19920;-62
2023/06/05 16:28:43;;;;;;;;;;;;;;;;;;5041745;28;20307;-62
2023/06/05 16:31:10;;;;;;;;;;;;;;;;;;5094285;28;19933;-62
2023/06/05 16:33:36;;;;;;;;;;;;;;;;;;5093641;28;19919;-62
2023/06/05 16:36:02;;;;;;;;;;;;;;;;;;5094220;28;20373;-62
2023/06/05 16:38:28;;;;;;;;;;;;;;;;;;5094015;28;19932;-62
2023/06/05 16:40:54;;;;;;;;;;;;;;;;;;5093701;28;19920;-62